createdAt,value
2022-08-26T00:02:02.630Z,75.64
2022-08-26T00:05:06.372Z,75.58
2022-08-26T00:08:11.148Z,75.92
2022-08-26T00:11:15.840Z,76.33
2022-08-26T00:14:31.673Z,76.17
2022-08-26T00:17:34.481Z,76.27
2022-08-26T00:20:37.397Z,76.29
2022-08-26T00:23:41.269Z,76.33
2022-08-26T00:26:44.116Z,76.55
2022-08-26T00:29:48.696Z,76.66
2022-08-26T00:32:51.817Z,76.46
2022-08-26T00:35:54.669Z,76.53
2022-08-26T00:38:58.551Z,76.54
2022-08-26T00:42:01.264Z,76.67
2022-08-26T00:45:11.701Z,77.19
2022-08-26T00:48:18.307Z,76.85
2022-08-26T00:51:24.111Z,76.99
2022-08-26T00:54:30.184Z,76.91
2022-08-26T00:57:35.373Z,77.20
2022-08-26T01:00:40.211Z,77.26
2022-08-26T01:03:45.909Z,77.03
2022-08-26T01:06:50.105Z,77.20
2022-08-26T01:09:53.068Z,77.51
2022-08-26T01:13:01.295Z,77.69
2022-08-26T01:16:11.699Z,77.43
2022-08-26T01:19:20.082Z,77.62
2022-08-26T01:22:26.644Z,77.88
2022-08-26T01:25:35.683Z,78.12
2022-08-26T01:28:40.716Z,78.20
2022-08-26T01:31:46.252Z,78.26
2022-08-26T01:34:49.588Z,78.22
2022-08-26T01:37:56.242Z,78.07
2022-08-26T01:41:02.669Z,78.55
2022-08-26T01:44:07.713Z,78.40
2022-08-26T01:47:14.456Z,78.62
2022-08-26T01:50:27.823Z,79.04
2022-08-26T01:53:33.328Z,79.62
2022-08-26T01:56:37.572Z,80.83
2022-08-26T01:59:40.412Z,81.06
2022-08-26T02:02:44.963Z,80.79
2022-08-26T02:05:51.523Z,80.49
2022-08-26T02:08:58.783Z,80.45
2022-08-26T02:12:03.302Z,80.72
2022-08-26T02:15:12.051Z,80.91
2022-08-26T02:18:14.958Z,80.94
2022-08-26T02:21:19.075Z,80.86
2022-08-26T02:24:27.356Z,80.78
2022-08-26T02:27:34.082Z,80.69
2022-08-26T02:30:37.904Z,80.40
2022-08-26T02:33:43.170Z,80.24
2022-08-26T02:36:46.159Z,80.09
2022-08-26T02:39:49.001Z,80.34
2022-08-26T02:43:01.969Z,80.26
2022-08-26T02:46:04.957Z,80.33
2022-08-26T02:49:08.088Z,80.27
2022-08-26T02:52:11.740Z,80.57
2022-08-26T02:55:14.448Z,80.70
2022-08-26T02:58:18.621Z,80.62
2022-08-26T03:01:25.378Z,80.66
2022-08-26T03:04:28.279Z,80.83
2022-08-26T03:07:31.122Z,80.89
2022-08-26T03:10:34.162Z,80.52
2022-08-26T03:13:38.900Z,80.40
2022-08-26T03:16:41.716Z,80.54
2022-08-26T03:19:44.448Z,80.34
2022-08-26T03:22:48.106Z,80.15
2022-08-26T03:25:54.790Z,80.36
2022-08-26T03:29:17.482Z,81.06
2022-08-26T03:32:20.643Z,81.29
2022-08-26T03:35:23.436Z,81.05
2022-08-26T03:38:26.201Z,80.54
2022-08-26T03:41:29.869Z,80.59
2022-08-26T03:44:33.827Z,80.58
2022-08-26T03:47:37.658Z,80.59
2022-08-26T03:50:41.081Z,80.72
2022-08-26T03:53:46.260Z,80.63
2022-08-26T03:56:49.195Z,81.12
2022-08-26T03:59:53.326Z,81.48
2022-08-26T04:02:56.554Z,81.12
2022-08-26T04:05:59.265Z,81.37
2022-08-26T04:09:05.743Z,81.50
2022-08-26T04:12:09.215Z,81.37
2022-08-26T04:15:17.876Z,81.52
2022-08-26T04:18:20.867Z,81.27
2022-08-26T04:21:24.310Z,81.49
2022-08-26T04:24:28.381Z,81.58
2022-08-26T04:27:31.349Z,81.74
2022-08-26T04:30:38.435Z,81.43
2022-08-26T04:33:41.873Z,81.46
2022-08-26T04:36:45.281Z,81.65
2022-08-26T04:39:52.071Z,81.61
2022-08-26T04:42:54.814Z,81.82
2022-08-26T04:46:00.640Z,81.83
2022-08-26T04:49:08.029Z,81.58
2022-08-26T04:52:10.828Z,81.40
2022-08-26T04:55:13.480Z,81.34
2022-08-26T04:58:17.322Z,81.21
2022-08-26T05:01:21.940Z,81.14
2022-08-26T05:04:26.753Z,81.25
2022-08-26T05:07:29.551Z,81.16
2022-08-26T05:10:35.676Z,81.76
2022-08-26T05:13:39.410Z,81.79
2022-08-26T05:16:43.421Z,82.00
2022-08-26T05:19:51.394Z,81.69
2022-08-26T05:22:55.262Z,82.23
2022-08-26T05:26:00.319Z,81.35
2022-08-26T05:29:03.305Z,80.89
2022-08-26T05:32:08.194Z,80.57
2022-08-26T05:35:13.960Z,79.65
2022-08-26T05:38:22.546Z,79.01
2022-08-26T05:41:34.556Z,79.17
2022-08-26T05:44:55.528Z,78.81
2022-08-26T05:48:00.177Z,79.21
2022-08-26T05:51:06.096Z,78.53
2022-08-26T05:54:08.749Z,78.05
2022-08-26T05:57:13.991Z,77.54
2022-08-26T06:00:17.099Z,76.37
2022-08-26T06:03:21.235Z,75.47
2022-08-26T06:06:29.230Z,75.86
2022-08-26T06:09:34.638Z,74.69
2022-08-26T06:12:37.453Z,74.10
2022-08-26T06:15:48.624Z,73.19
2022-08-26T06:18:54.560Z,73.67
2022-08-26T06:21:57.384Z,73.21
2022-08-26T06:25:17.639Z,71.50
2022-08-26T06:28:20.461Z,69.72
2022-08-26T06:31:23.961Z,67.88
2022-08-26T06:34:30.306Z,66.72
2022-08-26T06:37:33.453Z,65.45
2022-08-26T06:40:43.317Z,64.66
2022-08-26T06:43:47.007Z,61.74
2022-08-26T06:46:50.535Z,60.79
2022-08-26T06:49:55.370Z,59.88
2022-08-26T06:52:58.562Z,59.67
2022-08-26T06:56:04.762Z,58.96
2022-08-26T06:59:08.477Z,57.56
2022-08-26T07:02:13.478Z,55.48
2022-08-26T07:05:19.990Z,54.72
2022-08-26T07:08:23.363Z,55.45
2022-08-26T07:11:26.228Z,53.07
2022-08-26T07:14:31.727Z,54.44
2022-08-26T07:17:34.726Z,52.87
2022-08-26T07:20:42.365Z,51.16
2022-08-26T07:23:46.364Z,51.90
2022-08-26T07:26:49.593Z,51.69
2022-08-26T07:29:57.547Z,50.46
2022-08-26T07:33:00.813Z,51.18
2022-08-26T07:36:05.946Z,51.48
2022-08-26T07:39:08.993Z,50.71
2022-08-26T07:42:14.300Z,48.98
2022-08-26T07:45:17.589Z,47.95
2022-08-26T07:48:21.423Z,47.79
2022-08-26T07:51:26.445Z,47.04
2022-08-26T07:54:29.958Z,46.90
2022-08-26T07:57:32.880Z,46.80
2022-08-26T08:00:37.512Z,44.78
2022-08-26T08:03:41.500Z,44.95
2022-08-26T08:06:46.521Z,44.91
2022-08-26T08:09:51.414Z,44.41
2022-08-26T08:12:54.362Z,45.96
2022-08-26T08:15:57.208Z,44.56
2022-08-26T08:19:00.221Z,43.46
2022-08-26T08:22:05.185Z,42.34
2022-08-26T08:25:20.460Z,43.25
2022-08-26T08:28:23.258Z,42.48
2022-08-26T08:31:54.383Z,42.06
2022-08-26T08:34:51.076Z,42.12
2022-08-26T08:37:56.512Z,42.17
2022-08-26T08:41:00.849Z,41.76
2022-08-26T08:44:11.253Z,42.38
2022-08-26T08:47:21.523Z,41.66
2022-08-26T08:50:29.517Z,39.68
2022-08-26T08:53:37.599Z,40.84
2022-08-26T08:56:43.651Z,41.10
2022-08-26T08:59:53.675Z,40.46
2022-08-26T09:03:02.526Z,42.22
2022-08-26T09:06:17.005Z,42.04
2022-08-26T09:09:24.969Z,41.70
2022-08-26T09:12:32.204Z,40.54
2022-08-26T09:15:47.099Z,42.08
2022-08-26T09:19:14.663Z,43.49
2022-08-26T09:22:31.868Z,43.00
2022-08-26T09:25:46.973Z,41.63
2022-08-26T09:28:56.826Z,40.10
2022-08-26T09:32:19.428Z,39.83
2022-08-26T09:35:27.052Z,40.47
2022-08-26T09:38:34.775Z,40.60
2022-08-26T09:41:39.124Z,41.22
2022-08-26T09:44:56.765Z,42.38
2022-08-26T09:48:04.950Z,42.76
2022-08-26T09:51:26.349Z,43.01
2022-08-26T09:54:30.162Z,43.17
2022-08-26T09:57:37.806Z,43.88
2022-08-26T10:00:43.221Z,42.03
2022-08-26T10:03:47.107Z,42.52
2022-08-26T10:06:58.027Z,42.13
2022-08-26T10:10:01.329Z,41.65
2022-08-26T10:13:10.727Z,41.31
2022-08-26T10:16:20.050Z,42.17
2022-08-26T10:19:29.105Z,42.34
2022-08-26T10:22:51.117Z,42.06
2022-08-26T10:25:59.241Z,41.84
2022-08-26T10:29:11.344Z,40.47
2022-08-26T10:32:22.168Z,40.28
2022-08-26T10:35:27.293Z,38.42
2022-08-26T10:38:34.707Z,37.82
2022-08-26T10:41:41.678Z,37.35
2022-08-26T10:44:50.653Z,38.05
2022-08-26T10:47:57.886Z,37.89
2022-08-26T10:51:03.100Z,39.79
2022-08-26T10:54:12.151Z,38.79
2022-08-26T10:57:23.417Z,39.98
2022-08-26T11:00:51.716Z,39.37
2022-08-26T11:04:00.351Z,40.24
2022-08-26T11:07:52.737Z,40.35
2022-08-26T11:10:59.698Z,41.90
2022-08-26T11:14:05.150Z,43.02
2022-08-26T11:17:11.530Z,43.65
2022-08-26T11:20:34.405Z,44.07
2022-08-26T11:23:45.847Z,41.00
2022-08-26T11:26:56.004Z,42.74
2022-08-26T11:30:05.575Z,42.67
2022-08-26T11:33:10.747Z,43.86
2022-08-26T11:36:40.491Z,44.93
2022-08-26T11:39:54.711Z,45.89
2022-08-26T11:43:00.712Z,44.91
2022-08-26T11:46:06.806Z,45.30
2022-08-26T11:49:14.714Z,47.32
2022-08-26T11:52:20.977Z,49.77
2022-08-26T11:55:24.387Z,52.25
2022-08-26T11:58:29.163Z,52.32
2022-08-26T12:01:35.637Z,53.29
2022-08-26T12:04:44.173Z,54.67
2022-08-26T12:07:50.975Z,53.97
2022-08-26T12:11:04.143Z,54.13
2022-08-26T12:14:09.700Z,55.71
2022-08-26T12:17:14.873Z,55.19
2022-08-26T12:20:31.111Z,55.06
2022-08-26T12:23:43.333Z,56.08
2022-08-26T12:26:46.993Z,56.39
2022-08-26T12:30:02.735Z,56.67
2022-08-26T12:33:22.205Z,57.07
2022-08-26T12:36:31.735Z,60.84
2022-08-26T12:39:36.771Z,59.28
2022-08-26T12:42:45.776Z,61.29
2022-08-26T12:45:57.996Z,63.36
2022-08-26T12:49:03.065Z,65.11
2022-08-26T12:52:10.479Z,65.94
2022-08-26T12:55:21.583Z,65.82
2022-08-26T12:58:28.548Z,65.26
2022-08-26T13:01:39.210Z,64.36
2022-08-26T13:04:44.107Z,65.09
2022-08-26T13:08:12.951Z,67.24
2022-08-26T13:11:20.080Z,69.32
2022-08-26T13:14:25.605Z,68.88
2022-08-26T13:17:30.109Z,68.82
2022-08-26T13:20:34.927Z,70.65
2022-08-26T13:23:42.416Z,71.64
2022-08-26T13:26:47.090Z,72.77
2022-08-26T13:29:50.424Z,72.22
2022-08-26T13:32:58.325Z,72.74
2022-08-26T13:36:01.650Z,73.34
2022-08-26T13:39:07.268Z,73.40
2022-08-26T13:42:10.081Z,73.37
2022-08-26T13:45:13.221Z,73.84
2022-08-26T13:48:20.256Z,74.09
2022-08-26T13:51:25.413Z,74.49
2022-08-26T13:54:29.446Z,75.18
2022-08-26T13:57:32.231Z,75.70
2022-08-26T14:00:35.334Z,74.89
2022-08-26T14:03:38.399Z,75.17
2022-08-26T14:06:44.546Z,77.16
2022-08-26T14:09:49.472Z,77.76
2022-08-26T14:12:53.999Z,78.24
2022-08-26T14:15:58.720Z,79.77
2022-08-26T14:19:02.782Z,79.08
2022-08-26T14:22:05.708Z,77.86
2022-08-26T14:25:12.416Z,78.23
2022-08-26T14:28:15.384Z,79.20
2022-08-26T14:31:18.865Z,80.56
2022-08-26T14:34:21.597Z,82.81
2022-08-26T14:37:24.577Z,78.64
2022-08-26T14:40:32.276Z,77.60
2022-08-26T14:43:44.409Z,78.52
2022-08-26T14:46:49.589Z,79.38
2022-08-26T14:49:52.533Z,79.24
2022-08-26T14:53:13.115Z,79.17
2022-08-26T14:56:17.785Z,80.81
2022-08-26T14:59:23.160Z,80.70
2022-08-26T15:02:33.248Z,81.51
2022-08-26T15:05:36.800Z,80.61
2022-08-26T15:08:40.067Z,79.26
2022-08-26T15:11:44.670Z,78.74
2022-08-26T15:14:50.360Z,76.44
2022-08-26T15:17:53.197Z,78.97
2022-08-26T15:20:55.862Z,80.40
2022-08-26T15:23:59.505Z,80.96
2022-08-26T15:27:03.593Z,81.05
2022-08-26T15:30:09.054Z,80.83
2022-08-26T15:33:15.105Z,79.35
2022-08-26T15:36:18.365Z,78.35
2022-08-26T15:39:21.963Z,78.47
2022-08-26T15:42:26.156Z,80.11
2022-08-26T15:45:29.040Z,79.60
2022-08-26T15:48:31.941Z,79.70
2022-08-26T15:51:45.680Z,80.54
2022-08-26T15:54:48.925Z,80.65
2022-08-26T15:57:54.574Z,78.82
2022-08-26T16:00:57.786Z,78.51
2022-08-26T16:04:00.887Z,77.37
2022-08-26T16:07:04.260Z,79.33
2022-08-26T16:10:08.068Z,79.18
2022-08-26T16:13:14.760Z,79.01
2022-08-26T16:16:18.286Z,78.86
2022-08-26T16:19:21.440Z,79.02
2022-08-26T16:22:24.319Z,79.25
2022-08-26T16:25:32.051Z,78.70
2022-08-26T16:28:36.388Z,79.32
2022-08-26T16:31:41.709Z,79.08
2022-08-26T16:34:56.532Z,80.14
2022-08-26T16:37:59.716Z,79.89
2022-08-26T16:41:02.985Z,80.42
2022-08-26T16:44:08.613Z,80.68
2022-08-26T16:47:13.269Z,81.35
2022-08-26T16:50:16.485Z,81.55
2022-08-26T16:53:19.643Z,81.86
2022-08-26T16:56:24.126Z,82.07
2022-08-26T16:59:37.803Z,81.74
2022-08-26T17:02:40.633Z,82.08
2022-08-26T17:05:43.481Z,82.87
2022-08-26T17:08:46.285Z,82.77
2022-08-26T17:11:49.709Z,82.54
2022-08-26T17:14:53.785Z,82.34
2022-08-26T17:17:56.931Z,82.06
2022-08-26T17:21:03.132Z,82.29
2022-08-26T17:24:06.841Z,82.81
2022-08-26T17:27:09.786Z,82.87
2022-08-26T17:30:14.712Z,83.29
2022-08-26T17:33:18.655Z,82.89
2022-08-26T17:36:27.885Z,82.50
2022-08-26T17:39:31.268Z,83.32
2022-08-26T17:42:34.020Z,83.29
2022-08-26T17:45:40.406Z,83.88
2022-08-26T17:48:43.350Z,83.86
2022-08-26T17:51:46.514Z,84.16
2022-08-26T17:54:49.572Z,84.08
2022-08-26T17:57:53.178Z,84.02
2022-08-26T18:00:57.889Z,83.58
2022-08-26T18:04:00.997Z,83.82
2022-08-26T18:07:04.014Z,83.81
2022-08-26T18:10:12.520Z,84.75
2022-08-26T18:13:16.102Z,84.41
2022-08-26T18:16:21.472Z,83.96
2022-08-26T18:19:24.283Z,84.16
2022-08-26T18:22:27.131Z,83.96
2022-08-26T18:25:29.964Z,84.26
2022-08-26T18:28:34.804Z,84.34
2022-08-26T18:31:39.045Z,83.64
2022-08-26T18:34:41.839Z,83.83
2022-08-26T18:37:45.277Z,84.14
2022-08-26T18:40:47.919Z,84.10
2022-08-26T18:43:53.138Z,83.93
2022-08-26T18:46:57.235Z,84.49
2022-08-26T18:50:01.039Z,84.25
2022-08-26T18:53:03.898Z,84.11
2022-08-26T18:56:07.921Z,84.16
2022-08-26T18:59:11.153Z,84.19
2022-08-26T19:02:15.286Z,84.44
2022-08-26T19:05:18.214Z,84.14
2022-08-26T19:08:20.877Z,84.04
2022-08-26T19:11:32.511Z,84.20
2022-08-26T19:14:40.235Z,84.23
2022-08-26T19:17:44.268Z,84.45
2022-08-26T19:20:48.264Z,84.57
2022-08-26T19:23:51.467Z,84.39
2022-08-26T19:26:58.270Z,83.98
2022-08-26T19:30:01.219Z,84.46
2022-08-26T19:33:05.846Z,85.14
2022-08-26T19:36:14.977Z,85.17
2022-08-26T19:39:17.808Z,85.11
2022-08-26T19:42:20.632Z,85.43
2022-08-26T19:45:25.151Z,85.71
2022-08-26T19:48:29.785Z,85.30
2022-08-26T19:51:34.853Z,85.17
2022-08-26T19:54:37.776Z,85.47
2022-08-26T19:57:40.883Z,85.24
2022-08-26T20:00:43.728Z,85.53
2022-08-26T20:03:48.215Z,85.74
2022-08-26T20:06:51.788Z,85.22
2022-08-26T20:10:00.647Z,85.51
2022-08-26T20:13:03.373Z,85.54
2022-08-26T20:16:07.264Z,85.86
2022-08-26T20:19:29.236Z,85.27
2022-08-26T20:22:32.831Z,85.91
2022-08-26T20:25:35.729Z,85.78
2022-08-26T20:28:38.822Z,86.05
2022-08-26T20:31:41.942Z,85.63
2022-08-26T20:34:46.136Z,86.12
2022-08-26T20:37:48.838Z,86.09
2022-08-26T20:40:51.705Z,86.26
2022-08-26T20:43:59.267Z,86.61
2022-08-26T20:47:02.115Z,86.63
2022-08-26T20:50:08.215Z,86.54
2022-08-26T20:53:10.922Z,86.37
2022-08-26T20:56:15.564Z,86.41
2022-08-26T20:59:18.871Z,86.62
2022-08-26T21:02:21.692Z,86.26
2022-08-26T21:05:25.787Z,86.26
2022-08-26T21:08:28.596Z,86.20
2022-08-26T21:11:31.338Z,85.99
2022-08-26T21:14:34.197Z,85.89
2022-08-26T21:17:37.514Z,85.98
2022-08-26T21:20:41.714Z,85.72
2022-08-26T21:23:44.538Z,86.16
2022-08-26T21:26:48.749Z,86.55
2022-08-26T21:29:51.994Z,86.27
2022-08-26T21:32:57.315Z,86.85
2022-08-26T21:36:01.745Z,86.43
2022-08-26T21:39:09.290Z,86.10
2022-08-26T21:42:14.228Z,86.32
2022-08-26T21:45:17.575Z,86.22
2022-08-26T21:48:20.378Z,86.29
2022-08-26T21:51:27.455Z,86.47
2022-08-26T21:54:30.147Z,85.89
2022-08-26T21:57:34.585Z,85.36
2022-08-26T22:00:37.321Z,85.37
2022-08-26T22:03:46.762Z,85.39
2022-08-26T22:06:54.282Z,85.85
2022-08-26T22:09:57.291Z,85.84
2022-08-26T22:12:59.936Z,85.85
2022-08-26T22:16:03.089Z,85.44
2022-08-26T22:19:05.794Z,85.23
2022-08-26T22:22:10.002Z,85.12
2022-08-26T22:25:12.883Z,84.57
2022-08-26T22:28:16.000Z,84.39
2022-08-26T22:31:18.725Z,84.58
2022-08-26T22:34:23.214Z,84.19
2022-08-26T22:37:27.391Z,83.85
2022-08-26T22:40:33.467Z,83.48
2022-08-26T22:43:38.301Z,83.85
2022-08-26T22:46:42.881Z,83.80
2022-08-26T22:49:47.134Z,83.69
2022-08-26T22:52:51.223Z,82.08
2022-08-26T22:55:54.404Z,83.37
2022-08-26T22:58:57.093Z,83.56
2022-08-26T23:02:00.763Z,83.69
2022-08-26T23:05:03.515Z,84.33
2022-08-26T23:08:08.740Z,84.68
2022-08-26T23:11:13.325Z,84.90
2022-08-26T23:14:16.513Z,83.92
2022-08-26T23:17:19.207Z,83.36
2022-08-26T23:20:22.591Z,83.00
2022-08-26T23:23:27.892Z,84.15
2022-08-26T23:26:31.882Z,83.19
2022-08-26T23:29:35.708Z,84.99
2022-08-26T23:32:38.820Z,84.26
2022-08-26T23:35:41.907Z,83.37
2022-08-26T23:38:52.339Z,83.57
2022-08-26T23:41:57.128Z,82.16
2022-08-26T23:45:01.128Z,82.87
2022-08-26T23:48:04.648Z,83.55
2022-08-26T23:51:24.984Z,83.28
2022-08-26T23:54:29.206Z,83.82
2022-08-26T23:57:31.871Z,83.45
